George Bush Intercontinental Houston Airport
KIAH : now visible

Airfield :











YOU CAN JOIN US ON...

 
LOGIN :

Register | Disclaimer

   EN    FR    IT 

 









Legend :    VFR   Marginal VFR   IFR   Intensive IFR   Very Intensive IFR
Visi :
Ceiling :
>= 8 km
>= 3000ft
5 to 8 km
1000 to 3000 ft
1500m to 5 km
500 to 1000 ft
800 to 1500m
200 to 500 ft
< 800m
< 200 ft
Symbols :   Thunderstorms  Fog  Heavy snow  Heavy precipitations  Wind > 20 kt






- Airport Elevation : 97 ft
- IATA code : IAH


KIAH - George Bush Intercontinental Houston

CURRENT METAR :
  • 160653Z 09006KT 10SM OVC021 19/16 A2984 RMK AO2 SLP104 T01890156

EXPIRED METARs :
  • 160553Z 04006KT 10SM OVC025 19/16 A2987 RMK AO2 SLP115 T01940156 10217 20189 402280172 58004
  • 160453Z 08009KT 10SM OVC026 19/16 A2986 RMK AO2 SLP112 T01890161

TAF KIAH
Valid from the 16 at 06:00 until the 17 at 12:00 UTC


160521Z 1606/1712 03006KT P6SM SCT015 OVC029
FM160900 10009KT 6SM BR BKN015
FM161200 11007KT 5SM BR OVC007
FM161700 12007KT P6SM VCSH SCT009 BKN025
FM162000 13009KT P6SM VCTS BKN015CB
FM170300 18004KT P6SM VCSH BKN025
FM170600 35008KT P6SM BKN015
KZHU FIR / North America



MET'MAP, your aeronautical weather chart ! - Copyright ORBIFLY December 2007 - Disclaimer

ORBIFLY MET'MAP TEAM :

Programming & Development : Alexandra Zaïnal
Concept & original design : Baudouin d'Aumeries
Assistance for programming : Marc-Olivier Méhu
Technical & hardware support : Manuel Goepfert

Contact : metmap@orbifly.com




SOURCES & CREDITS :

   NOAA       Earth
Advisory